Time;durP1;ratioP1;P1;durP2;ratioP2;P2;SDS_P1;SDS_P2;PMS_P1;PMS_P2;Temp;Humidity;BMP_temperature;BMP_pressure;BME280_temperature;BME280_humidity;BME280_pressure;Samples;Min_cycle;Max_cycle;Signal;HPM_P1;HPM_P2
2023/03/18 00:00:15;;;;;;;3.92;2.00;;;12.80;99.90;;;;;;4973283;28;20188;-75
2023/03/18 00:02:41;;;;;;;3.05;1.95;;;12.80;99.90;;;;;;4975001;28;21596;-78
2023/03/18 00:05:13;;;;;;;2.42;1.67;;;12.80;99.90;;;;;;4992627;28;20176;-79
2023/03/18 00:07:44;;;;;;;3.42;1.88;;;12.80;99.90;;;;;;4965559;28;20203;-77
2023/03/18 00:10:10;;;;;;;3.22;1.80;;;12.80;99.90;;;;;;4976129;28;20207;-78
2023/03/18 00:12:38;;;;;;;3.95;2.00;;;12.80;99.90;;;;;;4976474;28;20172;-73
2023/03/18 00:15:12;;;;;;;4.90;1.90;;;12.70;99.90;;;;;;4975093;28;20180;-73
2023/03/18 00:17:40;;;;;;;3.83;2.22;;;12.80;99.90;;;;;;4997667;28;20326;-80
2023/03/18 00:20:07;;;;;;;5.28;2.20;;;12.80;99.90;;;;;;4967580;28;20222;-77
2023/03/18 00:22:34;;;;;;;5.10;2.03;;;12.80;99.90;;;;;;4980912;28;20185;-79
2023/03/18 00:25:07;;;;;;;4.22;2.20;;;12.80;99.90;;;;;;4998117;28;20187;-76
2023/03/18 00:27:36;;;;;;;3.25;1.92;;;12.70;99.90;;;;;;4999019;28;20286;-77
2023/03/18 00:30:06;;;;;;;2.75;2.15;;;12.70;99.90;;;;;;4982644;28;20200;-74
2023/03/18 00:32:32;;;;;;;3.65;2.10;;;12.70;99.90;;;;;;4977944;28;20176;-74
2023/03/18 00:35:01;;;;;;;4.78;1.80;;;12.70;99.90;;;;;;4988180;28;20195;-79
2023/03/18 00:37:29;;;;;;;4.43;2.42;;;12.80;99.90;;;;;;4989996;28;20211;-80
2023/03/18 00:40:05;;;;;;;3.65;1.90;;;12.80;99.90;;;;;;4997015;28;20190;-77
2023/03/18 00:42:41;;;;;;;3.55;2.15;;;12.70;99.90;;;;;;4996816;28;20187;-80
2023/03/18 00:45:09;;;;;;;3.63;2.20;;;12.70;99.90;;;;;;4980882;28;20184;-80
2023/03/18 00:47:38;;;;;;;3.10;1.75;;;12.70;99.90;;;;;;4978193;28;20192;-74
2023/03/18 00:50:08;;;;;;;2.88;1.83;;;12.70;99.90;;;;;;4997800;28;20200;-75
2023/03/18 00:52:38;;;;;;;4.07;2.20;;;12.80;99.90;;;;;;4979129;28;20169;-80
2023/03/18 00:55:07;;;;;;;4.63;1.98;;;12.80;99.90;;;;;;4976709;28;20238;-79
2023/03/18 00:57:32;;;;;;;3.05;1.90;;;12.80;99.90;;;;;;4979831;28;20239;-80
2023/03/18 00:59:58;;;;;;;3.47;2.20;;;12.80;99.90;;;;;;4982105;28;20171;-78
2023/03/18 01:02:29;;;;;;;2.60;1.90;;;12.80;99.90;;;;;;4994064;28;20242;-78
2023/03/18 01:04:55;;;;;;;3.17;2.10;;;12.90;99.90;;;;;;4991809;28;20200;-81
2023/03/18 01:07:26;;;;;;;3.10;2.33;;;12.90;99.90;;;;;;4974789;28;20283;-76
2023/03/18 01:09:51;;;;;;;3.40;2.10;;;12.90;99.90;;;;;;4994562;28;20173;-76
2023/03/18 01:12:20;;;;;;;3.40;2.28;;;12.90;99.90;;;;;;4999187;28;20219;-70
2023/03/18 01:14:45;;;;;;;4.78;2.60;;;12.90;99.90;;;;;;4997538;28;20176;-79
2023/03/18 01:17:11;;;;;;;4.65;2.60;;;13.00;99.90;;;;;;4976169;28;20337;-81
2023/03/18 01:19:41;;;;;;;2.90;2.10;;;13.00;99.90;;;;;;4991488;28;20208;-74
2023/03/18 01:22:09;;;;;;;4.28;2.28;;;13.00;99.90;;;;;;4981353;28;20176;-80
2023/03/18 01:24:35;;;;;;;4.72;2.50;;;13.00;99.90;;;;;;4978251;28;20184;-79
2023/03/18 01:27:01;;;;;;;3.63;2.15;;;13.00;99.90;;;;;;4980279;28;20204;-77
2023/03/18 01:29:29;;;;;;;3.63;2.50;;;13.00;99.90;;;;;;4972632;28;20254;-76
2023/03/18 01:31:57;;;;;;;4.28;2.35;;;13.00;99.90;;;;;;4976811;28;20172;-80
2023/03/18 01:34:25;;;;;;;4.28;2.60;;;13.00;99.90;;;;;;4987072;28;20200;-78
2023/03/18 01:36:53;;;;;;;4.28;2.42;;;12.90;99.90;;;;;;4986931;28;20199;-80
2023/03/18 01:39:22;;;;;;;3.95;2.70;;;12.90;99.90;;;;;;4993302;28;20266;-78
2023/03/18 01:41:53;;;;;;;4.13;2.65;;;12.90;99.90;;;;;;4978172;28;20278;-76
2023/03/18 01:44:26;;;;;;;3.97;2.50;;;12.90;99.90;;;;;;4974344;28;20180;-78
2023/03/18 01:46:52;;;;;;;3.33;2.60;;;12.90;99.90;;;;;;4972919;28;20218;-78
2023/03/18 01:49:27;;;;;;;4.65;2.65;;;12.80;99.90;;;;;;4994397;28;20184;-79
2023/03/18 01:52:15;;;;;;;4.85;2.80;;;12.80;99.90;;;;;;4977767;28;20175;-80
2023/03/18 01:54:46;;;;;;;4.50;2.88;;;12.80;99.90;;;;;;4993550;28;20203;-80
2023/03/18 01:57:16;;;;;;;5.72;2.90;;;12.80;99.90;;;;;;4993637;28;20192;-78
2023/03/18 01:59:46;;;;;;;5.28;2.80;;;12.80;99.90;;;;;;4978825;28;20347;-66
2023/03/18 02:02:14;;;;;;;3.15;2.33;;;12.80;99.90;;;;;;4970399;28;20180;-65
2023/03/18 02:04:52;;;;;;;4.05;2.85;;;12.70;99.90;;;;;;4976070;28;20176;-65
2023/03/18 02:07:27;;;;;;;5.38;3.00;;;12.70;99.90;;;;;;4975736;28;20218;-66
2023/03/18 02:09:58;;;;;;;4.38;2.72;;;12.70;99.90;;;;;;4994035;28;20234;-66
2023/03/18 02:12:28;;;;;;;4.47;2.70;;;12.70;99.90;;;;;;4983302;28;20177;-65
2023/03/18 02:14:56;;;;;;;2.70;2.42;;;12.70;99.90;;;;;;4983023;28;20200;-66
2023/03/18 02:17:28;;;;;;;4.55;2.60;;;12.70;99.90;;;;;;4974676;28;20189;-68
2023/03/18 02:20:36;;;;;;;3.63;2.60;;;12.70;99.90;;;;;;5006725;28;20172;-66
2023/03/18 02:23:23;;;;;;;3.75;2.35;;;12.60;99.90;;;;;;4971945;28;20196;-66
2023/03/18 02:26:10;;;;;;;4.45;2.40;;;12.60;99.90;;;;;;4996736;28;20194;-66
2023/03/18 02:28:41;;;;;;;3.75;2.55;;;12.60;99.90;;;;;;4974651;28;20204;-66
2023/03/18 02:31:11;;;;;;;3.95;2.58;;;12.60;99.90;;;;;;4974778;28;20176;-66
2023/03/18 02:33:41;;;;;;;5.65;2.70;;;12.60;99.90;;;;;;4975789;28;20184;-65
2023/03/18 02:36:21;;;;;;;3.47;2.65;;;12.60;99.90;;;;;;4977412;28;20207;-67
2023/03/18 02:38:47;;;;;;;3.72;2.60;;;12.60;99.90;;;;;;4974329;28;20188;-66
2023/03/18 02:41:20;;;;;;;3.42;2.35;;;12.60;99.90;;;;;;4958727;28;20177;-67
2023/03/18 02:43:47;;;;;;;3.85;2.47;;;12.60;99.90;;;;;;4977285;28;20207;-68
2023/03/18 02:46:46;;;;;;;3.10;2.40;;;12.60;99.90;;;;;;4974049;28;20251;-67
2023/03/18 02:49:13;;;;;;;4.38;2.67;;;12.50;99.90;;;;;;4976337;28;20180;-68
2023/03/18 02:51:40;;;;;;;3.85;2.33;;;12.50;99.90;;;;;;4988175;28;20231;-68
2023/03/18 02:54:09;;;;;;;3.38;2.60;;;12.50;99.90;;;;;;4967593;28;20340;-68
2023/03/18 02:56:42;;;;;;;2.72;2.03;;;12.50;99.90;;;;;;4976269;28;20182;-67
2023/03/18 02:59:09;;;;;;;3.38;2.25;;;12.50;99.90;;;;;;4974324;28;20247;-68
2023/03/18 03:01:36;;;;;;;3.83;2.65;;;12.50;99.90;;;;;;4992628;28;20272;-68
2023/03/18 03:04:05;;;;;;;3.45;2.30;;;12.40;99.90;;;;;;4976115;28;20210;-67
2023/03/18 03:06:32;;;;;;;4.22;2.58;;;12.40;99.90;;;;;;4975050;28;20199;-67
2023/03/18 03:08:59;;;;;;;4.32;2.30;;;12.40;99.90;;;;;;4987667;28;20168;-68
2023/03/18 03:11:25;;;;;;;3.38;2.65;;;12.30;99.90;;;;;;4974384;28;20204;-67
2023/03/18 03:13:53;;;;;;;4.85;3.00;;;12.30;99.90;;;;;;4976521;28;20202;-67
2023/03/18 03:16:20;;;;;;;4.13;2.50;;;12.20;99.90;;;;;;4974266;28;20271;-66
2023/03/18 03:18:48;;;;;;;3.60;2.30;;;12.10;99.90;;;;;;4975175;28;20227;-67
2023/03/18 03:21:15;;;;;;;3.53;2.33;;;12.10;99.90;;;;;;4991037;28;20188;-66
2023/03/18 03:23:44;;;;;;;3.30;2.30;;;12.00;99.90;;;;;;4989765;28;20250;-66
2023/03/18 03:26:10;;;;;;;2.65;2.10;;;12.00;99.90;;;;;;4988595;28;20196;-62
2023/03/18 03:28:36;;;;;;;3.55;2.40;;;11.90;99.90;;;;;;4967752;28;20177;-67
2023/03/18 03:31:09;;;;;;;4.00;2.40;;;11.90;99.90;;;;;;4973398;28;20238;-66
2023/03/18 03:33:40;;;;;;;4.35;2.38;;;11.90;99.90;;;;;;4978733;28;20181;-68
2023/03/18 03:36:10;;;;;;;2.95;2.10;;;11.80;99.90;;;;;;4974844;28;20180;-67
2023/03/18 03:38:35;;;;;;;4.32;2.35;;;11.80;99.90;;;;;;4974412;28;20208;-68
2023/03/18 03:41:04;;;;;;;3.35;2.10;;;11.80;99.90;;;;;;4975687;28;20219;-66
2023/03/18 03:43:31;;;;;;;3.08;2.10;;;11.80;99.90;;;;;;4985837;28;20184;-67
2023/03/18 03:45:59;;;;;;;2.92;2.20;;;11.90;99.90;;;;;;4974371;28;20240;-68
2023/03/18 03:48:27;;;;;;;4.53;2.15;;;12.00;99.90;;;;;;4969701;28;20171;-68
2023/03/18 03:50:53;;;;;;;4.03;2.40;;;12.10;99.90;;;;;;4975532;28;20164;-68
2023/03/18 03:53:21;;;;;;;3.25;1.88;;;12.20;99.90;;;;;;4973674;28;20207;-67
2023/03/18 03:55:49;;;;;;;2.58;1.88;;;12.30;99.90;;;;;;4973937;28;20215;-67
2023/03/18 03:58:17;;;;;;;4.10;2.40;;;12.40;99.90;;;;;;4975387;28;20184;-68
2023/03/18 04:00:45;;;;;;;2.83;2.22;;;12.40;99.90;;;;;;4957294;28;20304;-67
2023/03/18 04:03:13;;;;;;;4.32;2.10;;;12.50;99.90;;;;;;4981954;28;20259;-67
2023/03/18 04:05:42;;;;;;;3.67;2.33;;;12.60;99.90;;;;;;4981221;28;20179;-68
2023/03/18 04:08:07;;;;;;;3.92;1.95;;;12.70;99.90;;;;;;4984726;28;20192;-67
2023/03/18 04:10:35;;;;;;;6.03;2.42;;;12.70;99.90;;;;;;4975435;28;20191;-68
2023/03/18 04:13:02;;;;;;;4.18;2.50;;;12.80;99.90;;;;;;4975974;28;20176;-67
2023/03/18 04:15:28;;;;;;;3.20;2.38;;;12.80;99.90;;;;;;4982987;28;20204;-66
2023/03/18 04:17:53;;;;;;;4.55;2.53;;;12.80;99.90;;;;;;4978826;28;20303;-67
2023/03/18 04:20:21;;;;;;;3.72;2.40;;;12.90;99.90;;;;;;4984672;28;20204;-66
2023/03/18 04:22:49;;;;;;;5.68;2.83;;;12.90;99.90;;;;;;4975539;28;20245;-68
2023/03/18 04:25:17;;;;;;;2.80;2.10;;;12.90;99.90;;;;;;4975652;28;20176;-69
2023/03/18 04:27:45;;;;;;;3.75;2.38;;;13.00;99.90;;;;;;4974908;28;20235;-66
2023/03/18 04:30:12;;;;;;;3.33;2.33;;;13.00;99.90;;;;;;4976102;28;20266;-67
2023/03/18 04:32:39;;;;;;;5.03;2.42;;;13.00;99.90;;;;;;4956580;28;20191;-66
2023/03/18 04:35:05;;;;;;;3.20;2.10;;;13.00;99.90;;;;;;4973408;28;20196;-68
2023/03/18 04:37:35;;;;;;;3.95;2.10;;;13.00;99.90;;;;;;4991213;28;20214;-64
2023/03/18 04:40:01;;;;;;;4.63;2.30;;;13.00;99.90;;;;;;5003972;28;20207;-66
2023/03/18 04:42:26;;;;;;;3.17;2.28;;;13.00;99.90;;;;;;4995605;28;20259;-64
2023/03/18 04:44:52;;;;;;;2.80;2.15;;;13.00;99.90;;;;;;4974334;28;20191;-67
2023/03/18 04:47:18;;;;;;;3.85;2.30;;;13.00;99.90;;;;;;4972980;28;20195;-63
2023/03/18 04:49:46;;;;;;;5.50;2.38;;;13.00;99.90;;;;;;4974549;28;20196;-67
2023/03/18 04:52:11;;;;;;;4.13;2.22;;;13.00;99.90;;;;;;4977342;28;20179;-67
2023/03/18 04:54:38;;;;;;;6.20;2.50;;;13.00;99.90;;;;;;4973951;28;20191;-68
2023/03/18 04:57:05;;;;;;;2.75;2.28;;;13.00;99.90;;;;;;4974937;28;20195;-66
2023/03/18 04:59:33;;;;;;;3.25;2.25;;;13.00;99.90;;;;;;4990474;28;20195;-67
2023/03/18 05:02:02;;;;;;;3.05;2.33;;;12.90;99.90;;;;;;4972954;28;20272;-67
2023/03/18 05:04:27;;;;;;;3.20;2.20;;;12.90;99.90;;;;;;4976796;28;20196;-67
2023/03/18 05:06:57;;;;;;;2.28;2.00;;;12.90;99.90;;;;;;4972260;28;20287;-67
2023/03/18 05:09:22;;;;;;;3.47;2.13;;;12.90;99.90;;;;;;4973875;28;20231;-67
2023/03/18 05:11:48;;;;;;;3.50;2.20;;;12.90;99.90;;;;;;4967975;28;20176;-67
2023/03/18 05:14:16;;;;;;;4.78;2.15;;;12.80;99.90;;;;;;4974922;28;20184;-68
2023/03/18 05:16:42;;;;;;;2.13;1.63;;;12.80;99.90;;;;;;4973705;28;20176;-66
2023/03/18 05:19:08;;;;;;;3.47;2.30;;;12.80;99.90;;;;;;4968647;28;20187;-66
2023/03/18 05:21:35;;;;;;;3.75;2.20;;;12.80;99.90;;;;;;4982624;28;20175;-66
2023/03/18 05:24:01;;;;;;;3.53;1.90;;;12.70;99.90;;;;;;4970579;28;20295;-66
2023/03/18 05:26:29;;;;;;;3.33;1.98;;;12.70;99.90;;;;;;4977236;28;20219;-64
2023/03/18 05:28:59;;;;;;;3.60;1.88;;;12.70;99.90;;;;;;4972460;28;20226;-67
2023/03/18 05:31:25;;;;;;;2.97;2.00;;;12.60;99.90;;;;;;4974365;28;20267;-67
2023/03/18 05:33:51;;;;;;;2.40;1.85;;;12.60;99.90;;;;;;4972418;28;20273;-66
2023/03/18 05:36:18;;;;;;;2.72;1.70;;;12.60;99.90;;;;;;4980181;28;20271;-66
2023/03/18 05:38:43;;;;;;;2.63;2.00;;;12.60;99.90;;;;;;4979665;28;20191;-66
2023/03/18 05:41:09;;;;;;;2.08;1.60;;;12.60;99.90;;;;;;4993040;28;20180;-66
2023/03/18 05:43:34;;;;;;;2.30;1.60;;;12.50;99.90;;;;;;4977080;28;20200;-65
2023/03/18 05:46:00;;;;;;;1.67;1.55;;;12.50;99.90;;;;;;4991858;28;20203;-66
2023/03/18 05:48:26;;;;;;;2.78;1.70;;;12.40;99.90;;;;;;4971647;28;20184;-65
2023/03/18 05:50:52;;;;;;;2.20;1.70;;;12.40;99.90;;;;;;4967843;28;20180;-67
2023/03/18 05:53:20;;;;;;;2.75;1.85;;;12.40;99.90;;;;;;4977584;28;20176;-67
2023/03/18 05:55:47;;;;;;;3.70;2.00;;;12.40;99.90;;;;;;4977753;28;20222;-67
2023/03/18 05:58:16;;;;;;;2.40;1.75;;;12.40;99.90;;;;;;4993534;28;20191;-66
2023/03/18 06:00:42;;;;;;;2.80;1.77;;;12.40;99.90;;;;;;4994586;28;20212;-67
2023/03/18 06:03:08;;;;;;;4.47;1.98;;;12.30;99.90;;;;;;4989188;28;20223;-67
2023/03/18 06:05:34;;;;;;;3.15;1.90;;;12.40;99.90;;;;;;4977003;28;20208;-66
2023/03/18 06:08:02;;;;;;;3.15;2.05;;;12.30;99.90;;;;;;4977165;28;20282;-64
2023/03/18 06:10:28;;;;;;;3.10;1.73;;;12.30;99.90;;;;;;4976799;28;20275;-66
2023/03/18 06:12:54;;;;;;;4.55;2.05;;;12.30;99.90;;;;;;4973340;28;20271;-59
2023/03/18 06:15:24;;;;;;;4.40;2.10;;;12.30;99.90;;;;;;4989356;28;20168;-69
2023/03/18 06:17:52;;;;;;;2.40;2.00;;;12.30;99.90;;;;;;4989200;28;20181;-66
2023/03/18 06:20:18;;;;;;;3.03;1.98;;;12.40;99.90;;;;;;4992927;28;20180;-67
2023/03/18 06:22:48;;;;;;;4.43;2.35;;;12.30;99.90;;;;;;4977124;28;20259;-67
2023/03/18 06:25:15;;;;;;;2.47;2.13;;;12.40;99.90;;;;;;4969212;28;20255;-68
2023/03/18 06:27:42;;;;;;;3.35;2.30;;;12.40;99.90;;;;;;4976705;28;20267;-68
2023/03/18 06:30:12;;;;;;;2.67;1.95;;;12.40;99.90;;;;;;4976568;28;20260;-67
2023/03/18 06:32:39;;;;;;;3.03;2.22;;;12.40;99.90;;;;;;4976931;28;20219;-67
2023/03/18 06:35:05;;;;;;;5.18;2.30;;;12.40;99.90;;;;;;4976379;28;20219;-67
2023/03/18 06:37:33;;;;;;;2.53;2.03;;;12.40;99.90;;;;;;4972153;28;20200;-67
2023/03/18 06:40:02;;;;;;;3.42;2.15;;;12.40;99.90;;;;;;4973337;28;20184;-67
2023/03/18 06:42:33;;;;;;;3.70;2.50;;;12.50;99.90;;;;;;4989680;28;20188;-64
2023/03/18 06:44:59;;;;;;;3.90;2.25;;;12.50;99.90;;;;;;4984762;28;20196;-67
2023/03/18 06:47:25;;;;;;;3.65;2.40;;;12.50;99.90;;;;;;4989252;28;20211;-67
2023/03/18 06:49:50;;;;;;;3.95;2.40;;;12.60;99.90;;;;;;4977131;28;20206;-67
2023/03/18 06:52:20;;;;;;;4.13;2.40;;;12.60;99.90;;;;;;4976495;28;20175;-66
2023/03/18 06:54:45;;;;;;;2.78;2.28;;;12.60;99.90;;;;;;4981632;28;20195;-67
2023/03/18 06:57:13;;;;;;;4.15;2.50;;;12.70;99.90;;;;;;4977999;28;20255;-67
2023/03/18 06:59:39;;;;;;;3.78;2.25;;;12.70;99.90;;;;;;4976143;28;20184;-67
2023/03/18 07:02:11;;;;;;;3.40;2.25;;;12.80;99.90;;;;;;4992710;28;20187;-67
2023/03/18 07:04:37;;;;;;;3.20;2.17;;;12.80;99.90;;;;;;4976775;28;20287;-67
2023/03/18 07:07:06;;;;;;;2.33;1.80;;;12.90;99.90;;;;;;4980051;28;20287;-67
2023/03/18 07:09:35;;;;;;;3.33;2.33;;;12.90;99.90;;;;;;4990256;28;20247;-67
2023/03/18 07:12:03;;;;;;;3.00;1.98;;;13.00;99.90;;;;;;4986570;28;20540;-67
2023/03/18 07:14:29;;;;;;;2.67;2.42;;;13.00;99.90;;;;;;4976049;28;20183;-67
2023/03/18 07:16:57;;;;;;;3.28;2.10;;;13.10;99.90;;;;;;4976102;28;20448;-66
2023/03/18 07:19:23;;;;;;;3.17;2.10;;;13.10;99.90;;;;;;4992268;28;20189;-69
2023/03/18 07:21:49;;;;;;;3.88;2.13;;;13.20;99.90;;;;;;4976288;28;20184;-68
2023/03/18 07:24:19;;;;;;;3.40;2.13;;;13.20;99.90;;;;;;4974844;28;20184;-67
2023/03/18 07:26:49;;;;;;;3.53;2.33;;;13.30;99.90;;;;;;4976393;28;20291;-67
2023/03/18 07:29:15;;;;;;;3.28;2.20;;;13.30;99.90;;;;;;4972038;28;20197;-68
2023/03/18 07:31:43;;;;;;;3.28;2.47;;;13.40;99.90;;;;;;4973285;28;20176;-67
2023/03/18 07:34:12;;;;;;;3.22;2.70;;;13.40;99.90;;;;;;4973791;28;20226;-67
2023/03/18 07:36:38;;;;;;;3.35;2.60;;;13.50;99.90;;;;;;4980919;28;20283;-67
2023/03/18 07:39:08;;;;;;;4.88;2.65;;;13.50;99.90;;;;;;4973231;28;21970;-67
2023/03/18 07:41:37;;;;;;;4.93;2.80;;;13.60;99.90;;;;;;4980767;28;20291;-67
2023/03/18 07:44:03;;;;;;;4.13;2.42;;;13.60;99.90;;;;;;4992638;28;20642;-67
2023/03/18 07:46:29;;;;;;;4.38;2.55;;;13.70;99.90;;;;;;4975992;28;20199;-67
2023/03/18 07:48:55;;;;;;;4.22;2.58;;;13.70;99.90;;;;;;4976485;28;20187;-66
2023/03/18 07:51:21;;;;;;;4.70;2.30;;;13.80;99.90;;;;;;4991350;28;20172;-71
2023/03/18 07:53:50;;;;;;;4.10;2.25;;;13.80;99.90;;;;;;4975699;28;20188;-68
2023/03/18 07:56:19;;;;;;;5.53;2.72;;;13.90;99.90;;;;;;4989573;28;20267;-67
2023/03/18 07:58:45;;;;;;;3.65;2.35;;;14.00;99.90;;;;;;4982653;28;20195;-67
2023/03/18 08:01:14;;;;;;;3.95;2.50;;;14.00;99.90;;;;;;4988868;28;20288;-68
2023/03/18 08:03:43;;;;;;;3.67;2.55;;;14.10;99.90;;;;;;4976321;28;20230;-67
2023/03/18 08:06:10;;;;;;;2.90;2.30;;;14.10;99.90;;;;;;4976042;28;20270;-67
2023/03/18 08:08:36;;;;;;;3.33;2.20;;;14.20;99.90;;;;;;4975351;28;20172;-68
2023/03/18 08:11:04;;;;;;;2.63;1.90;;;14.30;99.90;;;;;;4967198;28;20235;-68
2023/03/18 08:13:30;;;;;;;3.22;2.13;;;14.30;99.90;;;;;;4973692;28;20230;-67
2023/03/18 08:15:58;;;;;;;2.90;1.90;;;14.40;99.90;;;;;;4966179;28;20211;-68
2023/03/18 08:18:24;;;;;;;2.47;1.95;;;14.50;99.90;;;;;;4984776;28;20200;-68
2023/03/18 08:20:50;;;;;;;3.53;2.10;;;14.50;99.90;;;;;;4961826;28;20235;-67
2023/03/18 08:23:20;;;;;;;3.42;1.92;;;14.60;99.90;;;;;;4974997;28;20208;-68
2023/03/18 08:25:50;;;;;;;3.92;2.05;;;14.70;99.90;;;;;;4969260;28;20521;-68
2023/03/18 08:28:19;;;;;;;4.95;2.50;;;14.70;99.90;;;;;;4981643;28;20174;-67
2023/03/18 08:30:47;;;;;;;3.38;2.20;;;14.70;99.90;;;;;;4961191;28;20187;-68
2023/03/18 08:33:15;;;;;;;4.75;2.20;;;14.80;99.90;;;;;;4990778;28;20200;-68
2023/03/18 08:35:44;;;;;;;4.72;1.90;;;14.80;99.90;;;;;;4973431;28;20187;-68
2023/03/18 08:38:09;;;;;;;3.20;2.10;;;14.90;99.90;;;;;;4985991;28;20228;-67
2023/03/18 08:40:38;;;;;;;2.63;1.80;;;14.90;99.90;;;;;;4969883;28;20212;-68
2023/03/18 08:43:07;;;;;;;3.63;2.20;;;15.00;99.90;;;;;;4972654;28;20172;-68
2023/03/18 08:45:34;;;;;;;3.00;1.60;;;15.00;99.90;;;;;;5000143;28;20239;-67
2023/03/18 08:48:00;;;;;;;3.58;1.67;;;15.10;99.90;;;;;;4975280;28;20184;-68
2023/03/18 08:50:28;;;;;;;2.85;1.98;;;15.10;99.90;;;;;;4971332;28;20183;-68
2023/03/18 08:52:56;;;;;;;3.50;2.05;;;15.20;99.90;;;;;;4969689;28;20195;-68
2023/03/18 08:55:35;;;;;;;3.28;2.00;;;15.20;99.90;;;;;;4986929;28;20175;-68
2023/03/18 08:58:05;;;;;;;3.35;2.22;;;15.30;99.90;;;;;;4975607;28;20190;-68
2023/03/18 09:00:37;;;;;;;2.35;1.65;;;15.30;99.90;;;;;;4965275;28;20286;-69
2023/03/18 09:03:05;;;;;;;2.72;1.60;;;15.40;99.90;;;;;;4971903;28;20192;-65
2023/03/18 09:05:31;;;;;;;1.90;1.50;;;15.50;99.90;;;;;;4969254;28;20191;-66
2023/03/18 09:07:57;;;;;;;2.95;1.50;;;15.50;99.90;;;;;;4965122;28;20231;-69
2023/03/18 09:10:24;;;;;;;2.88;1.73;;;15.60;99.90;;;;;;4991291;28;20187;-67
2023/03/18 09:12:52;;;;;;;2.17;1.42;;;15.70;99.90;;;;;;4994150;28;20234;-66
2023/03/18 09:15:19;;;;;;;2.03;1.25;;;15.80;99.90;;;;;;4975980;28;20267;-67
2023/03/18 09:17:47;;;;;;;3.80;1.70;;;15.80;99.90;;;;;;4973987;28;20262;-67
2023/03/18 09:20:15;;;;;;;3.45;1.77;;;15.90;99.90;;;;;;4997976;28;20208;-65
2023/03/18 09:22:44;;;;;;;2.95;1.48;;;16.00;99.90;;;;;;4979116;28;20190;-64
2023/03/18 09:25:10;;;;;;;2.50;1.42;;;16.10;99.90;;;;;;4996594;28;20180;-67
2023/03/18 09:27:38;;;;;;;2.60;1.48;;;16.20;99.90;;;;;;4999718;28;20212;-68
2023/03/18 09:30:05;;;;;;;3.03;1.50;;;16.30;99.90;;;;;;4979299;28;20179;-67
2023/03/18 09:32:33;;;;;;;1.63;1.20;;;16.50;99.90;;;;;;4975870;28;20277;-68
2023/03/18 09:34:59;;;;;;;3.58;1.50;;;16.60;99.90;;;;;;4992371;28;20201;-67
2023/03/18 09:37:27;;;;;;;1.58;1.40;;;16.60;99.90;;;;;;4975781;28;20227;-68
2023/03/18 09:39:53;;;;;;;2.60;1.80;;;16.70;99.90;;;;;;4978962;28;20204;-67
2023/03/18 09:42:47;;;;;;;2.05;1.60;;;16.70;99.90;;;;;;4974709;28;20237;-67
2023/03/18 09:45:23;;;;;;;1.95;1.50;;;16.80;99.90;;;;;;4985898;28;20176;-68
2023/03/18 09:48:09;;;;;;;1.58;1.30;;;16.80;99.90;;;;;;4977399;28;20193;-69
2023/03/18 09:50:47;;;;;;;3.65;1.10;;;16.90;99.90;;;;;;4978261;28;20279;-69
2023/03/18 09:53:25;;;;;;;1.58;1.13;;;17.00;99.90;;;;;;4989156;28;20203;-69
2023/03/18 09:56:01;;;;;;;1.48;0.95;;;17.20;99.90;;;;;;4973195;28;20247;-67
2023/03/18 09:58:30;;;;;;;2.00;1.00;;;17.40;99.90;;;;;;4999273;28;20266;-67
2023/03/18 10:01:06;;;;;;;2.42;1.20;;;17.70;99.90;;;;;;4977256;28;20262;-68
2023/03/18 10:03:38;;;;;;;3.28;1.58;;;18.00;99.90;;;;;;4975904;28;20180;-69
2023/03/18 10:06:22;;;;;;;2.15;1.27;;;18.20;99.90;;;;;;4977374;28;20207;-69
2023/03/18 10:09:11;;;;;;;2.22;1.10;;;18.40;99.90;;;;;;4984338;28;20216;-65
2023/03/18 10:11:45;;;;;;;1.70;1.17;;;18.60;99.90;;;;;;4990295;28;20184;-65
2023/03/18 10:14:30;;;;;;;2.33;1.23;;;18.70;99.90;;;;;;4975998;28;20185;-65
2023/03/18 10:17:26;;;;;;;2.17;1.17;;;18.90;99.90;;;;;;4988027;28;20208;-66
2023/03/18 10:19:58;;;;;;;2.22;1.00;;;19.20;99.90;;;;;;5001187;28;20207;-66
2023/03/18 10:22:42;;;;;;;2.80;1.08;;;19.50;99.90;;;;;;4993655;28;20184;-65
2023/03/18 10:25:35;;;;;;;1.73;1.05;;;19.70;99.90;;;;;;4984267;28;20199;-66
2023/03/18 10:28:22;;;;;;;2.38;1.17;;;20.00;99.90;;;;;;4974363;28;20203;-66
2023/03/18 10:31:20;;;;;;;2.72;1.13;;;20.10;99.90;;;;;;4967427;28;20270;-66
2023/03/18 10:34:02;;;;;;;2.60;1.17;;;20.20;99.90;;;;;;4976934;28;20262;-67
2023/03/18 10:36:56;;;;;;;1.75;1.00;;;20.20;99.90;;;;;;4977136;28;20180;-66
2023/03/18 10:39:26;;;;;;;1.85;1.10;;;20.30;99.90;;;;;;4992983;28;20302;-66
2023/03/18 10:41:54;;;;;;;2.88;1.40;;;20.40;99.90;;;;;;4976650;28;20195;-64
2023/03/18 10:44:36;;;;;;;2.60;1.10;;;20.50;99.90;;;;;;4975828;28;20204;-65
2023/03/18 10:47:28;;;;;;;2.45;0.90;;;20.60;99.90;;;;;;4976229;28;20796;-65
2023/03/18 10:50:26;;;;;;;1.95;0.90;;;20.60;99.90;;;;;;4976293;28;20196;-64
2023/03/18 10:52:52;;;;;;;1.23;0.80;;;20.60;99.90;;;;;;4960988;28;20188;-65
2023/03/18 10:55:27;;;;;;;1.85;1.05;;;20.50;99.90;;;;;;4967841;28;20176;-66
2023/03/18 10:57:53;;;;;;;2.58;1.00;;;20.50;99.90;;;;;;4976277;28;20179;-65
2023/03/18 11:00:29;;;;;;;1.88;0.95;;;20.50;99.90;;;;;;4976558;28;20419;-65
2023/03/18 11:02:55;;;;;;;1.42;0.90;;;20.60;99.90;;;;;;4975112;28;20294;-65
2023/03/18 11:05:30;;;;;;;1.58;0.98;;;20.80;99.90;;;;;;4976157;28;20179;-65
2023/03/18 11:07:59;;;;;;;2.08;1.00;;;20.90;99.90;;;;;;4987723;28;20207;-65
2023/03/18 11:10:31;;;;;;;1.40;1.00;;;21.00;99.90;;;;;;4975860;28;20176;-64
2023/03/18 11:12:59;;;;;;;1.90;0.93;;;21.10;99.90;;;;;;4991028;28;20259;-65
2023/03/18 11:15:28;;;;;;;1.75;0.90;;;21.10;99.90;;;;;;4976145;28;20271;-66
2023/03/18 11:17:59;;;;;;;2.25;1.13;;;21.20;99.90;;;;;;4974650;28;20191;-67
2023/03/18 11:20:44;;;;;;;1.52;0.93;;;21.30;99.90;;;;;;4975788;28;20208;-66
2023/03/18 11:23:44;;;;;;;1.92;0.95;;;21.40;99.90;;;;;;4972971;28;20196;-66
2023/03/18 11:26:21;;;;;;;2.75;0.95;;;21.50;99.90;;;;;;4956793;28;20208;-65
2023/03/18 11:28:46;;;;;;;1.70;1.00;;;21.60;99.90;;;;;;4982288;28;20183;-66
2023/03/18 11:31:17;;;;;;;2.00;0.85;;;21.60;99.90;;;;;;4987805;28;20184;-65
2023/03/18 11:33:46;;;;;;;1.30;1.00;;;21.60;99.90;;;;;;4975128;28;20195;-65
2023/03/18 11:36:22;;;;;;;1.27;0.90;;;21.50;99.90;;;;;;4975537;28;20204;-67
2023/03/18 11:39:02;;;;;;;2.00;1.00;;;21.40;99.90;;;;;;4969729;28;20217;-65
2023/03/18 11:41:31;;;;;;;1.42;0.95;;;21.50;99.90;;;;;;4975698;28;20183;-64
2023/03/18 11:44:16;;;;;;;1.30;0.88;;;21.60;99.90;;;;;;4974722;28;20363;-65
2023/03/18 11:46:47;;;;;;;1.98;0.90;;;21.70;99.90;;;;;;4956469;28;20215;-66
2023/03/18 11:49:19;;;;;;;1.67;0.80;;;21.90;99.90;;;;;;4956369;28;20256;-65
2023/03/18 11:51:47;;;;;;;1.85;0.98;;;22.00;99.90;;;;;;4975826;28;20223;-66
2023/03/18 11:54:38;;;;;;;3.60;1.00;;;21.90;99.90;;;;;;4976110;28;20176;-64
2023/03/18 11:57:23;;;;;;;1.70;0.80;;;21.90;99.90;;;;;;4975239;28;20195;-66
2023/03/18 12:00:12;;;;;;;2.33;0.93;;;21.80;99.90;;;;;;4976477;28;20326;-65
2023/03/18 12:03:07;;;;;;;2.25;1.00;;;21.70;99.90;;;;;;4991470;28;20228;-65
2023/03/18 12:06:02;;;;;;;1.98;1.08;;;21.70;99.90;;;;;;4972183;28;20282;-65
2023/03/18 12:08:44;;;;;;;2.00;1.08;;;21.60;99.90;;;;;;4975013;28;20191;-65
2023/03/18 12:11:39;;;;;;;2.53;1.05;;;21.40;99.90;;;;;;4988620;28;20200;-66
2023/03/18 12:14:17;;;;;;;1.88;0.90;;;21.30;99.90;;;;;;4989748;28;20268;-66
2023/03/18 12:17:15;;;;;;;2.13;1.20;;;21.20;99.90;;;;;;4991591;28;20196;-65
2023/03/18 12:20:03;;;;;;;1.52;0.90;;;21.10;99.90;;;;;;4972521;28;20183;-66
2023/03/18 12:22:59;;;;;;;1.25;0.82;;;20.90;99.90;;;;;;4971953;28;20179;-66
2023/03/18 12:26:03;;;;;;;1.45;0.90;;;20.90;99.90;;;;;;4993703;28;20340;-66
2023/03/18 12:28:54;;;;;;;1.83;0.80;;;20.80;99.90;;;;;;4912661;29;20305;-63
2023/03/18 12:31:49;;;;;;;1.58;0.75;;;20.70;99.90;;;;;;4984218;28;20181;-63
2023/03/18 12:34:33;;;;;;;1.38;0.80;;;20.60;99.90;;;;;;4984450;28;20219;-66
2023/03/18 12:37:23;;;;;;;1.92;1.10;;;20.60;99.90;;;;;;4986454;28;20309;-66
2023/03/18 12:40:11;;;;;;;2.38;0.93;;;20.60;99.90;;;;;;4988148;28;20195;-66
2023/03/18 12:42:56;;;;;;;2.42;1.05;;;20.60;99.90;;;;;;4965520;28;20279;-66
2023/03/18 12:45:27;;;;;;;1.83;1.00;;;20.60;99.90;;;;;;4989206;28;20188;-67
2023/03/18 12:48:25;;;;;;;1.80;1.00;;;20.60;99.90;;;;;;4987249;28;20206;-67
2023/03/18 12:50:57;;;;;;;2.55;1.00;;;20.60;99.90;;;;;;4987219;28;20192;-66
2023/03/18 12:53:34;;;;;;;2.55;1.15;;;20.50;99.90;;;;;;4974354;28;20192;-66
2023/03/18 12:56:15;;;;;;;1.50;0.93;;;20.50;99.90;;;;;;4975591;28;20199;-66
2023/03/18 12:58:49;;;;;;;2.45;0.98;;;20.40;99.90;;;;;;4969179;28;20195;-66
2023/03/18 13:01:41;;;;;;;1.25;0.90;;;20.30;99.90;;;;;;4974929;28;20256;-66
2023/03/18 13:04:13;;;;;;;1.50;1.02;;;20.30;99.90;;;;;;4976300;28;20183;-66
2023/03/18 13:07:07;;;;;;;2.55;1.05;;;20.30;99.90;;;;;;4967990;28;20204;-67
2023/03/18 13:09:57;;;;;;;2.55;1.00;;;20.20;99.90;;;;;;4981480;28;20180;-70